Time;durP1;ratioP1;P1;durP2;ratioP2;P2;SDS_P1;SDS_P2;PMS_P1;PMS_P2;Temp;Humidity;BMP_temperature;BMP_pressure;BME280_temperature;BME280_humidity;BME280_pressure;Samples;Min_cycle;Max_cycle;Signal;HPM_P1;HPM_P2
2022/03/16 00:04:01;;;;;;;10.20;9.30;;;12.20;38.50;;;;;;10312365;28;20231;-76
2022/03/16 00:09:04;;;;;;;10.83;9.83;;;12.10;39.10;;;;;;10293547;28;20242;-76
2022/03/16 00:14:07;;;;;;;13.10;12.00;;;12.00;38.50;;;;;;10300945;28;20234;-76
2022/03/16 00:19:12;;;;;;;13.67;12.43;;;12.00;38.70;;;;;;10309880;28;20226;-76
2022/03/16 00:24:15;;;;;;;11.83;10.83;;;11.90;39.00;;;;;;10305284;28;20231;-76
2022/03/16 00:29:18;;;;;;;13.17;12.03;;;11.90;38.20;;;;;;10292214;28;20715;-76
2022/03/16 00:34:23;;;;;;;12.97;11.87;;;11.80;38.30;;;;;;10313516;28;20242;-77
2022/03/16 00:39:27;;;;;;;12.93;11.73;;;11.90;38.70;;;;;;10298185;28;20242;-76
2022/03/16 00:44:34;;;;;;;11.97;10.83;;;11.80;38.00;;;;;;10313170;28;20742;-76
2022/03/16 00:49:39;;;;;;;14.33;13.03;;;11.80;38.00;;;;;;10309536;28;20235;-76
2022/03/16 00:54:42;;;;;;;13.90;12.70;;;11.80;38.30;;;;;;10305514;28;21035;-76
2022/03/16 00:59:46;;;;;;;12.70;11.60;;;11.80;37.90;;;;;;10313715;28;20230;-76
2022/03/16 01:04:50;;;;;;;13.63;12.43;;;11.80;37.90;;;;;;10320388;28;20238;-76
2022/03/16 01:09:54;;;;;;;13.80;12.60;;;11.80;38.20;;;;;;10302901;28;20765;-76
2022/03/16 01:14:57;;;;;;;14.33;13.13;;;11.80;37.90;;;;;;10307537;28;20231;-76
2022/03/16 01:20:01;;;;;;;14.20;13.00;;;11.80;37.70;;;;;;10315043;28;20227;-76
2022/03/16 01:25:06;;;;;;;14.67;13.37;;;11.80;38.20;;;;;;10311100;28;20237;-76
2022/03/16 01:30:10;;;;;;;14.97;13.67;;;11.80;37.80;;;;;;10314854;28;20234;-76
2022/03/16 01:35:14;;;;;;;14.93;13.63;;;11.80;37.90;;;;;;10321903;28;20230;-76
2022/03/16 01:40:17;;;;;;;14.53;13.27;;;11.80;38.10;;;;;;10314312;28;20227;-76
2022/03/16 01:45:20;;;;;;;14.70;13.40;;;11.80;37.70;;;;;;10320558;28;20234;-76
2022/03/16 01:50:25;;;;;;;14.70;13.50;;;11.70;37.60;;;;;;10323186;28;20609;-76
2022/03/16 01:55:28;;;;;;;16.33;14.83;;;11.70;38.20;;;;;;10317202;28;20245;-76
2022/03/16 02:00:32;;;;;;;14.27;12.87;;;11.60;37.70;;;;;;10318123;28;20230;-76
2022/03/16 02:05:37;;;;;;;14.10;12.80;;;11.50;37.40;;;;;;10315396;28;20247;-76
2022/03/16 02:10:42;;;;;;;15.23;13.73;;;11.40;37.80;;;;;;10311102;28;20235;-76
2022/03/16 02:15:45;;;;;;;13.97;12.73;;;11.40;37.80;;;;;;10321141;28;20239;-76
2022/03/16 02:20:52;;;;;;;15.87;14.37;;;11.30;37.50;;;;;;10303269;28;20231;-76
2022/03/16 02:25:56;;;;;;;14.87;13.50;;;11.20;38.30;;;;;;10310015;28;20243;-76
2022/03/16 02:31:00;;;;;;;15.37;13.87;;;11.20;37.90;;;;;;10324758;28;20254;-76
2022/03/16 02:36:03;;;;;;;15.53;14.13;;;11.10;37.50;;;;;;10316521;28;20231;-76
2022/03/16 02:41:08;;;;;;;13.97;12.70;;;11.10;37.60;;;;;;10313227;28;20253;-76
2022/03/16 02:46:11;;;;;;;14.20;12.87;;;11.00;37.80;;;;;;10309668;28;20238;-76
2022/03/16 02:51:14;;;;;;;14.10;12.80;;;11.00;37.60;;;;;;10304864;28;20729;-76
2022/03/16 02:56:18;;;;;;;15.57;14.13;;;11.00;37.50;;;;;;10317788;28;20811;-79
2022/03/16 03:01:22;;;;;;;15.87;14.37;;;11.00;37.90;;;;;;10309780;28;20262;-76
2022/03/16 03:06:27;;;;;;;14.63;13.27;;;11.00;37.60;;;;;;10312905;28;20246;-76
2022/03/16 03:11:32;;;;;;;16.40;14.90;;;10.90;37.30;;;;;;10311785;28;20242;-78
2022/03/16 03:16:35;;;;;;;14.87;13.57;;;10.90;37.90;;;;;;10309589;28;20240;-76
2022/03/16 03:21:38;;;;;;;15.13;13.80;;;10.80;37.50;;;;;;10316223;28;20970;-76
2022/03/16 03:26:43;;;;;;;13.80;12.60;;;10.70;37.40;;;;;;10315642;28;20233;-78
2022/03/16 03:31:46;;;;;;;14.60;13.30;;;10.70;37.70;;;;;;10312061;28;20246;-76
2022/03/16 03:36:49;;;;;;;14.27;13.00;;;10.70;37.50;;;;;;10311791;28;20723;-76
2022/03/16 03:41:54;;;;;;;13.17;11.90;;;10.70;37.50;;;;;;10313542;28;20988;-76
2022/03/16 03:46:57;;;;;;;14.93;13.53;;;10.80;37.70;;;;;;10320492;28;20235;-76
2022/03/16 03:52:01;;;;;;;14.87;13.47;;;10.80;37.40;;;;;;10310916;28;20234;-76
2022/03/16 03:57:06;;;;;;;15.90;14.47;;;10.80;37.40;;;;;;10306632;28;20226;-76
2022/03/16 04:02:09;;;;;;;15.00;13.70;;;10.80;37.60;;;;;;10313517;28;20231;-76
2022/03/16 04:07:12;;;;;;;15.03;13.70;;;10.70;37.10;;;;;;10308251;28;20242;-76
2022/03/16 04:12:17;;;;;;;14.53;13.23;;;10.70;37.00;;;;;;10315208;28;20269;-78
2022/03/16 04:17:20;;;;;;;15.00;13.70;;;10.60;37.20;;;;;;10317126;28;20226;-76
2022/03/16 04:22:26;;;;;;;15.40;14.00;;;10.60;37.00;;;;;;10309873;28;20238;-76
2022/03/16 04:27:30;;;;;;;13.93;12.63;;;10.50;36.80;;;;;;10317076;28;20230;-78
2022/03/16 04:32:33;;;;;;;14.57;13.23;;;10.50;37.30;;;;;;10314564;28;20322;-76
2022/03/16 04:37:37;;;;;;;14.47;13.17;;;10.50;37.20;;;;;;10321239;28;20898;-76
2022/03/16 04:42:41;;;;;;;14.87;13.47;;;10.50;37.20;;;;;;10316113;28;20241;-77
2022/03/16 04:47:44;;;;;;;15.17;13.70;;;10.50;37.50;;;;;;10315901;28;20232;-76
2022/03/16 04:52:49;;;;;;;15.63;14.23;;;10.40;37.20;;;;;;10312922;28;20695;-76
2022/03/16 04:57:54;;;;;;;14.60;13.20;;;10.40;37.40;;;;;;10314454;28;20234;-77
2022/03/16 05:02:57;;;;;;;16.33;14.83;;;10.40;37.50;;;;;;10305861;28;20227;-76
2022/03/16 05:08:00;;;;;;;16.13;14.67;;;10.40;37.50;;;;;;10319369;28;20227;-76
2022/03/16 05:13:05;;;;;;;16.90;15.40;;;10.40;37.40;;;;;;10320185;28;20230;-76
2022/03/16 05:18:08;;;;;;;16.60;15.10;;;10.30;37.70;;;;;;10328605;28;20229;-77
2022/03/16 05:23:11;;;;;;;17.37;15.67;;;10.30;37.40;;;;;;10325159;28;20235;-77
2022/03/16 05:28:16;;;;;;;17.83;16.23;;;10.30;37.50;;;;;;10324342;28;20236;-76
2022/03/16 05:33:20;;;;;;;17.57;15.90;;;10.30;37.90;;;;;;10327374;28;20616;-76
2022/03/16 05:38:23;;;;;;;16.73;15.23;;;10.30;37.60;;;;;;10328662;28;20293;-78
2022/03/16 05:43:27;;;;;;;17.67;15.97;;;10.30;37.60;;;;;;10329645;28;20714;-78
2022/03/16 05:48:30;;;;;;;17.93;16.33;;;10.30;37.90;;;;;;10329065;28;20766;-76
2022/03/16 05:53:34;;;;;;;16.03;14.63;;;10.30;37.60;;;;;;10324797;28;20766;-76
2022/03/16 05:58:38;;;;;;;17.30;15.63;;;10.30;37.60;;;;;;10312483;28;20227;-77
2022/03/16 06:03:41;;;;;;;16.67;15.13;;;10.30;38.00;;;;;;10309998;28;20235;-76
2022/03/16 06:08:45;;;;;;;15.33;13.93;;;10.40;37.70;;;;;;10306323;28;20232;-75
2022/03/16 06:13:49;;;;;;;14.90;13.50;;;10.40;37.70;;;;;;10304855;28;20234;-78
2022/03/16 06:18:53;;;;;;;15.53;14.10;;;10.50;38.70;;;;;;10315452;28;20234;-76
2022/03/16 06:23:56;;;;;;;14.83;13.43;;;10.50;37.90;;;;;;10324284;28;20948;-76
2022/03/16 06:29:01;;;;;;;16.73;15.27;;;10.50;37.70;;;;;;10322232;28;20230;-78
2022/03/16 06:34:04;;;;;;;15.87;14.37;;;10.50;38.00;;;;;;10326499;28;20237;-78
2022/03/16 06:39:07;;;;;;;16.40;14.80;;;10.60;37.90;;;;;;10324275;28;20254;-75
2022/03/16 06:44:12;;;;;;;16.43;14.93;;;10.50;37.60;;;;;;10320404;28;20254;-73
2022/03/16 06:49:15;;;;;;;15.97;14.47;;;10.50;37.90;;;;;;10321575;28;20227;-73
2022/03/16 06:54:19;;;;;;;13.70;12.50;;;10.50;37.70;;;;;;10317692;28;20238;-72
2022/03/16 06:59:23;;;;;;;15.47;14.10;;;10.50;37.60;;;;;;10320770;28;20242;-73
2022/03/16 07:04:26;;;;;;;15.73;14.23;;;10.60;38.00;;;;;;10320354;28;20349;-73
2022/03/16 07:09:32;;;;;;;14.40;13.07;;;10.60;38.00;;;;;;10317999;28;20293;-73
2022/03/16 07:14:36;;;;;;;13.97;12.77;;;10.60;37.80;;;;;;10315105;28;20235;-74
2022/03/16 07:19:40;;;;;;;13.23;12.03;;;10.60;38.00;;;;;;10317792;28;20318;-73
2022/03/16 07:24:43;;;;;;;12.20;11.13;;;10.60;37.50;;;;;;10316056;28;20243;-74
2022/03/16 07:29:47;;;;;;;12.13;11.03;;;10.70;37.30;;;;;;10316411;28;20238;-75
2022/03/16 07:34:50;;;;;;;11.30;10.20;;;10.70;37.20;;;;;;10313091;28;20237;-74
2022/03/16 07:39:54;;;;;;;12.43;11.33;;;10.70;36.90;;;;;;10308279;28;20227;-75
2022/03/16 07:45:10;;;;;;;12.97;11.77;;;10.70;37.10;;;;;;10311707;28;20234;-74
2022/03/16 07:50:13;;;;;;;12.03;10.97;;;10.70;37.10;;;;;;10311006;28;20243;-74
2022/03/16 07:55:16;;;;;;;12.40;11.30;;;10.80;37.20;;;;;;10301978;28;20324;-73
2022/03/16 08:00:21;;;;;;;12.93;11.83;;;10.70;36.90;;;;;;10304840;28;20227;-76
2022/03/16 08:05:32;;;;;;;11.97;10.97;;;10.80;37.20;;;;;;10310476;28;20283;-74
2022/03/16 08:10:35;;;;;;;12.90;11.70;;;10.80;37.30;;;;;;10320668;28;20231;-74
2022/03/16 08:15:40;;;;;;;12.67;11.53;;;10.90;37.20;;;;;;10305215;28;20238;-73
2022/03/16 08:20:43;;;;;;;12.20;11.10;;;10.90;38.00;;;;;;10314722;28;20810;-74
2022/03/16 08:25:47;;;;;;;13.10;11.90;;;11.00;37.40;;;;;;10320497;28;20735;-74
2022/03/16 08:30:51;;;;;;;12.17;10.97;;;11.10;37.30;;;;;;10302478;28;20318;-73
2022/03/16 08:35:55;;;;;;;13.70;12.50;;;11.20;37.10;;;;;;10316551;28;20314;-74
2022/03/16 08:40:58;;;;;;;13.23;12.03;;;11.20;37.20;;;;;;10310644;28;20415;-74
2022/03/16 08:46:03;;;;;;;13.07;11.83;;;11.30;37.10;;;;;;10322710;28;20223;-74
2022/03/16 08:51:08;;;;;;;12.80;11.60;;;11.40;37.30;;;;;;10325572;28;20231;-73
2022/03/16 08:56:12;;;;;;;12.57;11.47;;;11.40;37.10;;;;;;10329882;28;20258;-73
2022/03/16 09:01:16;;;;;;;14.30;12.90;;;11.50;37.20;;;;;;10332549;28;20234;-73
2022/03/16 09:06:20;;;;;;;13.17;11.97;;;11.60;37.50;;;;;;10326941;28;20714;-73
2022/03/16 09:11:23;;;;;;;14.50;13.20;;;11.90;37.50;;;;;;10333620;28;20260;-73
2022/03/16 09:16:28;;;;;;;13.87;12.47;;;12.00;37.30;;;;;;10336325;28;20249;-73
2022/03/16 09:21:31;;;;;;;13.80;12.60;;;12.10;36.90;;;;;;10327117;28;20246;-73
2022/03/16 09:26:34;;;;;;;13.47;12.27;;;12.30;37.20;;;;;;10322885;28;20235;-73
2022/03/16 09:31:40;;;;;;;12.20;11.17;;;12.50;36.80;;;;;;10322619;28;20234;-73
2022/03/16 09:36:45;;;;;;;14.63;13.33;;;12.70;37.00;;;;;;10335904;28;20317;-73
2022/03/16 09:41:49;;;;;;;12.93;11.83;;;12.80;36.30;;;;;;10324917;28;20331;-74
2022/03/16 09:46:56;;;;;;;14.10;12.90;;;12.90;36.40;;;;;;10324622;28;20736;-74
2022/03/16 09:52:00;;;;;;;14.37;13.00;;;13.00;36.30;;;;;;10325475;28;20626;-74
2022/03/16 09:57:03;;;;;;;14.20;13.00;;;13.20;36.70;;;;;;10321829;28;20245;-74
2022/03/16 10:02:09;;;;;;;15.07;13.80;;;13.40;36.80;;;;;;10328734;28;20237;-74
2022/03/16 10:07:13;;;;;;;15.20;13.90;;;13.60;36.30;;;;;;10328219;28;20230;-74
2022/03/16 10:17:45;;;;;;;15.67;14.27;;;14.00;35.60;;;;;;10323274;28;20257;-74
2022/03/16 10:22:55;;;;;;;16.03;14.63;;;14.20;35.40;;;;;;10309956;28;20693;-74
2022/03/16 10:28:14;;;;;;;15.77;14.27;;;14.30;34.90;;;;;;10322305;28;20909;-74
2022/03/16 10:33:20;;;;;;;17.20;15.70;;;14.40;34.70;;;;;;10315572;28;20716;-74
2022/03/16 10:38:24;;;;;;;16.03;14.73;;;14.50;34.70;;;;;;10328492;28;20369;-74
2022/03/16 10:49:00;;;;;;;15.90;14.50;;;14.50;34.80;;;;;;10327194;28;20798;-74
2022/03/16 10:54:05;;;;;;;17.20;15.70;;;14.60;33.80;;;;;;10308301;28;20691;-74
2022/03/16 10:59:09;;;;;;;14.40;13.20;;;14.70;34.60;;;;;;10327979;28;20234;-74
2022/03/16 11:04:14;;;;;;;17.00;15.60;;;14.90;34.70;;;;;;10320762;28;20231;-74
2022/03/16 11:09:17;;;;;;;16.20;14.90;;;15.00;34.00;;;;;;10318827;28;20733;-74
2022/03/16 11:14:22;;;;;;;17.23;15.73;;;15.00;34.30;;;;;;10321677;28;20777;-74
2022/03/16 11:19:27;;;;;;;16.27;14.77;;;15.10;33.80;;;;;;10315326;28;20235;-76
2022/03/16 11:24:33;;;;;;;16.57;15.17;;;15.20;33.40;;;;;;10306446;28;20242;-76
2022/03/16 11:29:59;;;;;;;16.77;15.37;;;15.20;33.30;;;;;;10318065;28;20506;-76
2022/03/16 11:35:12;;;;;;;17.97;16.37;;;15.30;33.20;;;;;;10323606;28;20675;-76
2022/03/16 11:40:20;;;;;;;17.63;16.13;;;15.40;32.50;;;;;;10308178;28;20233;-76
2022/03/16 11:45:35;;;;;;;17.30;15.80;;;15.40;32.80;;;;;;10314958;28;20326;-76
2022/03/16 11:50:40;;;;;;;15.83;14.53;;;15.50;32.50;;;;;;10307460;28;20228;-76
2022/03/16 11:55:50;;;;;;;17.17;15.67;;;15.60;32.60;;;;;;10307628;28;20242;-76
2022/03/16 12:01:24;;;;;;;17.13;15.63;;;15.60;32.60;;;;;;10310671;28;20577;-78
2022/03/16 12:06:48;;;;;;;17.83;16.23;;;15.70;32.70;;;;;;10312266;28;20252;-79
2022/03/16 12:17:30;;;;;;;17.73;16.23;;;15.90;32.60;;;;;;10294580;28;20637;-78
2022/03/16 12:22:38;;;;;;;17.07;15.67;;;15.90;32.00;;;;;;10298190;28;20246;-78
2022/03/16 12:33:02;;;;;;;18.13;16.63;;;15.80;32.30;;;;;;10303680;28;20883;-79
2022/03/16 12:38:10;;;;;;;18.73;17.13;;;15.80;32.60;;;;;;10306877;28;20231;-78
2022/03/16 12:43:22;;;;;;;16.90;15.40;;;15.80;31.30;;;;;;10305393;28;20235;-79
2022/03/16 12:48:26;;;;;;;17.90;16.40;;;15.80;31.30;;;;;;10301798;28;20227;-79
2022/03/16 12:53:44;;;;;;;17.37;15.87;;;15.80;32.20;;;;;;10311273;28;21037;-78
2022/03/16 12:58:53;;;;;;;17.43;15.93;;;15.80;30.10;;;;;;10301723;28;20241;-78
2022/03/16 13:04:01;;;;;;;17.70;16.20;;;15.80;31.90;;;;;;10308760;28;20254;-75
2022/03/16 13:09:07;;;;;;;16.73;15.33;;;15.90;31.80;;;;;;10311934;28;20223;-77
2022/03/16 13:14:13;;;;;;;17.20;15.80;;;16.00;31.30;;;;;;10294465;28;20237;-76
2022/03/16 13:19:24;;;;;;;16.47;15.07;;;16.00;31.80;;;;;;10294512;28;20230;-76
2022/03/16 13:24:29;;;;;;;18.03;16.33;;;16.10;31.30;;;;;;10295220;28;20306;-77
2022/03/16 13:29:34;;;;;;;17.13;15.73;;;16.10;31.10;;;;;;10301267;28;20243;-79
2022/03/16 13:34:39;;;;;;;17.50;16.10;;;16.10;30.80;;;;;;10314481;28;20238;-77
2022/03/16 13:40:00;;;;;;;19.17;17.57;;;16.10;30.70;;;;;;10302494;28;20230;-76
2022/03/16 13:45:15;;;;;;;18.57;16.97;;;16.10;30.30;;;;;;10309303;28;20309;-77
2022/03/16 13:50:21;;;;;;;17.73;16.23;;;16.10;30.50;;;;;;10305404;28;20226;-80
2022/03/16 13:55:34;;;;;;;18.10;16.50;;;16.20;31.10;;;;;;10302668;28;20238;-77
2022/03/16 14:00:44;;;;;;;19.90;18.20;;;16.20;30.30;;;;;;10301375;28;20245;-78
2022/03/16 14:05:51;;;;;;;18.27;16.67;;;16.30;30.20;;;;;;10299873;28;20234;-77
2022/03/16 14:10:55;;;;;;;17.57;16.00;;;16.30;30.70;;;;;;10304877;28;20237;-76
2022/03/16 14:16:12;;;;;;;17.67;16.17;;;16.20;30.20;;;;;;10309659;28;20229;-75
2022/03/16 14:21:15;;;;;;;17.10;15.60;;;16.20;29.50;;;;;;10306359;28;20336;-75
2022/03/16 14:26:21;;;;;;;17.87;16.33;;;16.20;30.50;;;;;;10314798;28;20231;-74
2022/03/16 14:31:24;;;;;;;18.50;16.93;;;16.10;29.80;;;;;;10308974;28;20242;-75
2022/03/16 14:36:27;;;;;;;17.83;16.33;;;16.20;30.50;;;;;;10313510;28;20235;-75
2022/03/16 14:41:33;;;;;;;19.00;17.50;;;16.10;30.60;;;;;;10308653;28;20239;-74
2022/03/16 14:46:36;;;;;;;17.20;15.80;;;16.10;30.50;;;;;;10304981;28;20318;-75
2022/03/16 14:51:39;;;;;;;19.20;17.60;;;16.20;30.70;;;;;;10303988;28;20230;-75
2022/03/16 14:56:44;;;;;;;17.80;16.30;;;16.20;30.50;;;;;;10312887;28;20247;-74
2022/03/16 15:01:47;;;;;;;18.87;17.27;;;16.20;30.30;;;;;;10319788;28;20241;-75
2022/03/16 15:06:50;;;;;;;19.17;17.57;;;16.20;30.40;;;;;;10320332;28;20334;-75
2022/03/16 15:11:55;;;;;;;18.77;17.27;;;16.30;30.40;;;;;;10329758;28;20253;-74
2022/03/16 15:16:58;;;;;;;18.27;16.77;;;16.20;30.00;;;;;;10323940;28;20231;-76
2022/03/16 15:22:02;;;;;;;19.50;17.90;;;16.20;30.30;;;;;;10318632;28;20852;-76
2022/03/16 15:27:07;;;;;;;19.20;17.50;;;16.10;30.20;;;;;;10324802;28;20597;-74
2022/03/16 15:32:10;;;;;;;19.73;18.03;;;16.10;30.00;;;;;;10318147;28;20313;-75
2022/03/16 15:37:16;;;;;;;18.20;16.70;;;16.00;30.00;;;;;;10320506;28;20241;-75
2022/03/16 15:47:41;;;;;;;20.27;18.47;;;15.80;29.90;;;;;;10318384;28;20234;-75
2022/03/16 15:52:45;;;;;;;20.30;18.50;;;15.60;30.20;;;;;;10315563;28;20754;-74
2022/03/16 15:57:49;;;;;;;19.60;18.00;;;15.50;30.20;;;;;;10322249;28;20235;-75
2022/03/16 16:02:52;;;;;;;19.47;17.87;;;15.50;30.20;;;;;;10315677;28;20239;-75
2022/03/16 16:07:56;;;;;;;19.43;17.63;;;15.50;30.50;;;;;;10318323;28;20227;-76
2022/03/16 16:13:01;;;;;;;19.27;17.57;;;15.40;30.30;;;;;;10316238;28;20881;-75
2022/03/16 16:18:05;;;;;;;20.17;18.53;;;15.40;30.20;;;;;;10319897;28;20242;-77
2022/03/16 16:23:08;;;;;;;18.53;16.93;;;15.40;30.30;;;;;;10315564;28;20231;-75
2022/03/16 16:28:13;;;;;;;19.13;17.53;;;15.40;30.40;;;;;;10321690;28;20223;-75
2022/03/16 16:33:17;;;;;;;18.63;17.13;;;15.30;30.20;;;;;;10315226;28;20238;-76
2022/03/16 16:38:20;;;;;;;23.10;21.03;;;15.30;30.20;;;;;;10311448;28;20230;-74
2022/03/16 16:43:31;;;;;;;20.50;18.80;;;15.20;30.40;;;;;;10315542;28;20758;-77
2022/03/16 16:48:34;;;;;;;18.83;17.33;;;15.20;30.40;;;;;;10313515;28;20236;-76
2022/03/16 16:53:38;;;;;;;19.03;17.43;;;15.20;30.50;;;;;;10315242;28;20245;-77
2022/03/16 16:58:45;;;;;;;20.00;18.23;;;15.20;30.50;;;;;;10315692;28;20749;-75
2022/03/16 17:03:51;;;;;;;22.50;20.60;;;15.20;30.20;;;;;;10318498;28;20775;-76
2022/03/16 17:08:54;;;;;;;24.53;22.43;;;15.10;30.30;;;;;;10323464;28;20245;-75
2022/03/16 17:14:00;;;;;;;22.83;20.93;;;15.10;30.30;;;;;;10340775;28;20241;-74
2022/03/16 17:19:03;;;;;;;20.93;19.13;;;15.10;30.40;;;;;;10360386;28;20222;-76
2022/03/16 17:24:07;;;;;;;18.97;17.43;;;15.10;30.40;;;;;;10322415;28;20916;-76
2022/03/16 17:29:12;;;;;;;18.33;16.80;;;15.10;30.40;;;;;;10322403;28;20227;-75
2022/03/16 17:34:16;;;;;;;19.47;17.87;;;15.20;30.50;;;;;;10322498;28;20243;-76
2022/03/16 17:39:19;;;;;;;18.33;16.70;;;15.20;30.60;;;;;;10322653;28;20246;-76
2022/03/16 17:49:45;;;;;;;20.73;18.93;;;15.20;30.40;;;;;;10321859;28;20235;-77
2022/03/16 17:54:48;;;;;;;20.10;18.40;;;15.20;30.20;;;;;;10321288;28;20606;-74
2022/03/16 17:59:53;;;;;;;19.83;18.23;;;15.20;30.40;;;;;;10323124;28;20242;-77
2022/03/16 18:04:58;;;;;;;20.07;18.43;;;15.10;30.10;;;;;;10312294;28;20586;-76
2022/03/16 18:15:24;;;;;;;20.60;18.90;;;15.10;30.10;;;;;;10305634;28;20230;-77
2022/03/16 18:20:27;;;;;;;21.30;19.50;;;15.00;30.00;;;;;;10307929;28;20235;-75
2022/03/16 18:25:30;;;;;;;21.17;19.30;;;14.90;29.90;;;;;;10321112;28;20738;-76
2022/03/16 18:30:35;;;;;;;19.90;18.27;;;14.80;30.00;;;;;;10328841;28;20242;-77
2022/03/16 18:35:38;;;;;;;19.53;17.83;;;14.70;29.90;;;;;;10329909;28;20703;-77
2022/03/16 18:40:42;;;;;;;18.87;17.30;;;14.60;30.00;;;;;;10330104;28;21029;-76
2022/03/16 18:45:47;;;;;;;22.37;20.47;;;14.50;30.10;;;;;;10328934;28;20261;-77
2022/03/16 18:50:53;;;;;;;20.10;18.40;;;14.40;30.10;;;;;;10329592;28;20239;-77
2022/03/16 18:55:57;;;;;;;19.27;17.60;;;14.30;30.20;;;;;;10329225;28;20323;-76
2022/03/16 19:01:03;;;;;;;20.40;18.40;;;14.20;30.10;;;;;;10329218;28;20230;-77
2022/03/16 19:06:08;;;;;;;20.23;18.40;;;14.20;30.10;;;;;;10328428;28;20239;-77
2022/03/16 19:16:33;;;;;;;22.63;20.53;;;14.00;30.20;;;;;;10329411;28;20249;-77
2022/03/16 19:21:36;;;;;;;24.43;22.27;;;13.90;30.20;;;;;;10328555;28;20258;-77
2022/03/16 19:26:41;;;;;;;22.20;20.30;;;13.80;30.20;;;;;;10328217;28;20314;-75
2022/03/16 19:31:47;;;;;;;20.17;18.47;;;13.70;30.00;;;;;;10328491;28;20238;-76
2022/03/16 19:36:51;;;;;;;24.67;22.47;;;13.50;30.00;;;;;;10328198;28;20246;-76
2022/03/16 19:42:12;;;;;;;23.03;21.13;;;13.40;30.10;;;;;;10327531;28;20696;-76
2022/03/16 19:47:17;;;;;;;22.57;20.47;;;13.30;30.30;;;;;;10329723;28;20326;-77
2022/03/16 19:52:20;;;;;;;19.27;17.60;;;13.20;30.50;;;;;;10329005;28;20262;-76
2022/03/16 19:57:24;;;;;;;20.27;18.50;;;13.00;30.40;;;;;;10329090;28;20245;-77
2022/03/16 20:02:29;;;;;;;21.57;19.77;;;12.80;30.20;;;;;;10327028;28;20231;-75
2022/03/16 20:07:34;;;;;;;22.37;20.40;;;12.70;30.10;;;;;;10324719;28;20766;-75
2022/03/16 20:12:37;;;;;;;22.80;20.70;;;12.60;30.00;;;;;;10338635;28;20238;-77
2022/03/16 20:17:43;;;;;;;24.97;22.77;;;12.50;30.00;;;;;;10333212;28;20242;-76
2022/03/16 20:22:48;;;;;;;25.53;23.23;;;12.40;30.20;;;;;;10347501;28;20843;-76
2022/03/16 20:27:52;;;;;;;25.50;23.20;;;12.30;30.40;;;;;;10347195;28;20241;-76
2022/03/16 20:32:56;;;;;;;24.23;22.03;;;12.20;30.30;;;;;;10322524;28;20770;-73
2022/03/16 20:38:00;;;;;;;26.43;23.87;;;12.10;30.30;;;;;;10334165;28;20233;-73
2022/03/16 20:43:03;;;;;;;25.07;22.83;;;12.00;30.30;;;;;;10338462;28;20322;-76
2022/03/16 20:48:08;;;;;;;25.37;23.17;;;11.90;30.40;;;;;;10378543;28;20788;-75
2022/03/16 20:53:12;;;;;;;25.00;22.77;;;11.80;30.60;;;;;;10378069;28;20974;-76
2022/03/16 21:03:34;;;;;;;25.77;23.37;;;11.70;30.60;;;;;;10378146;28;20272;-78
2022/03/16 21:08:38;;;;;;;26.33;23.77;;;11.60;30.70;;;;;;10378824;28;20742;-76
2022/03/16 21:13:45;;;;;;;25.33;23.00;;;11.50;30.70;;;;;;10352113;28;20243;-75
2022/03/16 21:18:51;;;;;;;25.27;22.97;;;11.50;31.00;;;;;;10338877;28;20244;-75
2022/03/16 21:23:54;;;;;;;25.20;22.87;;;11.50;31.10;;;;;;10329626;28;20269;-74
2022/03/16 21:28:59;;;;;;;24.73;22.43;;;11.40;31.00;;;;;;10345270;28;20241;-74
2022/03/16 21:34:04;;;;;;;24.57;22.27;;;11.40;31.00;;;;;;10356722;28;20304;-75
2022/03/16 21:39:08;;;;;;;24.13;21.83;;;11.40;31.10;;;;;;10336347;28;20235;-75
2022/03/16 21:44:39;;;;;;;24.13;21.93;;;11.40;31.00;;;;;;10329437;28;20250;-75
2022/03/16 21:49:44;;;;;;;24.00;21.80;;;11.40;31.00;;;;;;10333069;28;20314;-75
2022/03/16 21:54:48;;;;;;;25.13;22.80;;;11.40;31.10;;;;;;10343900;28;20241;-76
2022/03/16 21:59:51;;;;;;;23.73;21.63;;;11.40;31.10;;;;;;10320284;28;20596;-76
2022/03/16 22:04:57;;;;;;;24.27;22.07;;;11.30;31.10;;;;;;10320162;28;20235;-76
2022/03/16 22:10:01;;;;;;;23.90;21.70;;;11.30;31.20;;;;;;10317942;28;20223;-75
2022/03/16 22:15:06;;;;;;;26.30;23.77;;;11.30;31.20;;;;;;10317092;28;20235;-75
2022/03/16 22:20:12;;;;;;;23.60;21.30;;;11.30;31.20;;;;;;10320534;28;20318;-76
2022/03/16 22:25:15;;;;;;;24.83;22.53;;;11.30;31.20;;;;;;10317006;28;20230;-75
2022/03/16 22:30:18;;;;;;;23.53;21.33;;;11.30;31.00;;;;;;10320329;28;20685;-75
2022/03/16 22:35:23;;;;;;;24.57;22.27;;;11.30;31.10;;;;;;10323143;28;20249;-76
2022/03/16 22:40:26;;;;;;;24.83;22.43;;;11.20;31.10;;;;;;10320750;28;20234;-75
2022/03/16 22:45:30;;;;;;;24.33;22.13;;;11.30;31.20;;;;;;10316440;28;20235;-75
2022/03/16 22:50:34;;;;;;;24.03;21.83;;;11.20;31.00;;;;;;10317148;28;20241;-75
2022/03/16 22:55:38;;;;;;;24.57;22.37;;;11.20;31.10;;;;;;10316678;28;20231;-75
2022/03/16 23:00:42;;;;;;;26.20;23.70;;;11.20;31.20;;;;;;10337950;28;20623;-75
2022/03/16 23:05:46;;;;;;;26.20;23.70;;;11.20;31.20;;;;;;10324244;28;20243;-75
2022/03/16 23:10:51;;;;;;;26.13;23.70;;;11.20;31.40;;;;;;10318384;28;20241;-75
2022/03/16 23:15:55;;;;;;;25.43;23.07;;;11.10;31.20;;;;;;10317625;28;20234;-75
2022/03/16 23:21:00;;;;;;;26.47;23.97;;;11.10;31.20;;;;;;10318010;28;20226;-75
2022/03/16 23:26:03;;;;;;;26.63;24.03;;;11.10;31.40;;;;;;10313599;28;20272;-75
2022/03/16 23:31:06;;;;;;;27.73;25.03;;;11.10;31.30;;;;;;10322665;28;20995;-75
2022/03/16 23:36:13;;;;;;;25.90;23.53;;;11.00;31.40;;;;;;10317235;28;20237;-75
2022/03/16 23:41:16;;;;;;;28.07;25.27;;;11.00;31.60;;;;;;10325962;28;20854;-74
2022/03/16 23:46:19;;;;;;;27.97;25.37;;;11.00;31.50;;;;;;10317472;28;20894;-75
2022/03/16 23:51:24;;;;;;;26.70;24.10;;;11.00;31.60;;;;;;10316912;28;20259;-75
2022/03/16 23:56:27;;;;;;;29.07;26.17;;;11.00;31.70;;;;;;10316658;28;21043;-75
